METAR Data
IDs: Format: Raw Decoded Include TAF

Data at: 1218 UTC 26 Feb 2021

EPLB 261200Z 25009KT CAVOK 13/07 Q1023